Time;durP1;ratioP1;P1;durP2;ratioP2;P2;SDS_P1;SDS_P2;PMS_P1;PMS_P2;Temp;Humidity;BMP_temperature;BMP_pressure;BME280_temperature;BME280_humidity;BME280_pressure;Samples;Min_cycle;Max_cycle;Signal;HPM_P1;HPM_P2
2023/01/20 00:01:45;;;;;;;44.73;19.10;;;;;;;0.78;100.00;98535.63;5102455;28;20277;-79
2023/01/20 00:04:14;;;;;;;64.53;19.57;;;;;;;0.81;100.00;98533.75;5101248;28;20192;-79
2023/01/20 00:06:44;;;;;;;60.17;19.77;;;;;;;0.87;100.00;98532.69;5095801;28;20759;-79
2023/01/20 00:09:16;;;;;;;51.63;19.30;;;;;;;0.88;100.00;98538.78;5092715;28;20200;-79
2023/01/20 00:11:45;;;;;;;66.57;20.90;;;;;;;0.87;100.00;98537.91;5091485;28;20200;-79
2023/01/20 00:14:14;;;;;;;65.40;19.80;;;;;;;0.90;100.00;98540.41;5087258;28;20235;-79
2023/01/20 00:16:42;;;;;;;45.57;19.07;;;;;;;0.83;100.00;98544.97;5089701;28;20646;-80
2023/01/20 00:19:12;;;;;;;50.13;19.90;;;;;;;0.80;100.00;98547.69;5093672;28;20191;-79
2023/01/20 00:21:41;;;;;;;39.97;19.17;;;;;;;0.93;100.00;98550.72;5092886;28;20211;-80
2023/01/20 00:24:11;;;;;;;38.97;18.07;;;;;;;0.88;100.00;98550.03;5093842;28;20199;-80
2023/01/20 00:26:39;;;;;;;43.50;20.37;;;;;;;0.83;100.00;98544.97;5090791;28;20200;-80
2023/01/20 00:29:09;;;;;;;78.13;18.80;;;;;;;0.78;100.00;98546.06;5095016;27;20196;-80
2023/01/20 00:31:37;;;;;;;55.30;19.70;;;;;;;0.83;100.00;98550.19;5092553;28;20686;-80
2023/01/20 00:34:06;;;;;;;95.87;20.03;;;;;;;0.81;100.00;98551.16;5093124;28;20259;-79
2023/01/20 00:36:34;;;;;;;61.40;19.63;;;;;;;0.88;100.00;98552.66;5085783;28;20249;-79
2023/01/20 00:39:02;;;;;;;56.47;19.33;;;;;;;0.81;100.00;98554.59;5089629;28;20199;-79
2023/01/20 00:41:32;;;;;;;68.67;19.37;;;;;;;0.91;100.00;98554.28;5090337;28;20692;-79
2023/01/20 00:44:00;;;;;;;121.60;24.00;;;;;;;0.79;100.00;98563.38;5088573;28;20188;-79
2023/01/20 00:46:29;;;;;;;104.63;21.67;;;;;;;0.67;100.00;98564.63;5092308;28;20199;-80
2023/01/20 00:48:57;;;;;;;59.17;19.90;;;;;;;0.72;100.00;98565.34;5094760;28;20187;-79
2023/01/20 00:51:25;;;;;;;54.47;22.20;;;;;;;0.82;100.00;98565.88;5053491;28;20192;-79
2023/01/20 00:53:53;;;;;;;78.80;25.40;;;;;;;0.75;100.00;98567.84;5088997;28;20237;-80
2023/01/20 00:56:22;;;;;;;118.60;27.53;;;;;;;0.51;100.00;98566.06;5092006;28;20191;-80
2023/01/20 00:58:53;;;;;;;141.30;29.67;;;;;;;0.65;100.00;98563.84;5092662;28;20337;-79
2023/01/20 01:01:22;;;;;;;148.33;29.17;;;;;;;0.51;100.00;98568.66;5090539;28;20301;-80
2023/01/20 01:03:53;;;;;;;111.23;24.83;;;;;;;0.44;100.00;98572.38;5055675;28;20202;-79
2023/01/20 01:06:22;;;;;;;80.67;22.20;;;;;;;0.45;100.00;98566.25;5053667;28;20191;-80
2023/01/20 01:08:51;;;;;;;122.57;22.63;;;;;;;0.28;100.00;98585.03;5082212;28;20249;-80
2023/01/20 01:11:20;;;;;;;142.73;22.63;;;;;;;0.36;100.00;98582.19;5087068;28;20242;-80
2023/01/20 01:13:48;;;;;;;107.47;20.03;;;;;;;0.16;100.00;98588.03;5089277;28;20665;-79
2023/01/20 01:16:18;;;;;;;228.00;24.83;;;;;;;-0.08;100.00;98584.44;5088322;28;20192;-79
2023/01/20 01:18:47;;;;;;;160.77;22.33;;;;;;;-0.02;100.00;98584.22;5091416;28;20246;-79
2023/01/20 01:21:16;;;;;;;219.77;26.00;;;;;;;-0.23;100.00;98585.75;5091706;28;20699;-79
2023/01/20 01:23:45;;;;;;;47.77;16.93;;;;;;;-0.02;100.00;98582.47;5091410;28;20260;-80
2023/01/20 01:26:14;;;;;;;65.53;19.40;;;;;;;0.15;100.00;98583.72;5088047;28;20674;-79
2023/01/20 01:28:42;;;;;;;50.93;19.30;;;;;;;0.24;100.00;98589.50;5091492;28;20188;-79
2023/01/20 01:31:10;;;;;;;81.83;19.83;;;;;;;0.27;100.00;98589.38;5090700;28;20206;-80
2023/01/20 01:33:41;;;;;;;70.53;18.47;;;;;;;0.22;100.00;98596.50;5090675;28;20249;-79
2023/01/20 01:36:13;;;;;;;133.20;21.50;;;;;;;0.25;100.00;98592.94;5092736;28;20188;-80
2023/01/20 01:38:42;;;;;;;82.43;20.03;;;;;;;0.25;100.00;98595.56;5087661;28;20184;-79
2023/01/20 01:41:12;;;;;;;93.07;20.93;;;;;;;0.31;100.00;98597.13;5095250;28;20240;-80
2023/01/20 01:43:59;;;;;;;46.47;17.40;;;;;;;0.40;100.00;98600.28;5096648;28;20261;-80
2023/01/20 01:46:28;;;;;;;36.27;15.70;;;;;;;0.34;100.00;98604.81;5096795;28;20211;-80
2023/01/20 01:49:01;;;;;;;172.27;22.17;;;;;;;-0.09;100.00;98613.97;5096523;28;20296;-80
2023/01/20 01:51:34;;;;;;;128.40;21.43;;;;;;;-0.13;100.00;98610.59;5094470;28;20216;-80
2023/01/20 01:54:07;;;;;;;57.43;16.03;;;;;;;0.23;100.00;98619.03;5088869;28;20191;-80
2023/01/20 01:56:38;;;;;;;68.70;16.03;;;;;;;0.06;100.00;98620.44;5094630;28;20213;-80
2023/01/20 01:59:06;;;;;;;182.33;22.10;;;;;;;-0.06;100.00;98614.72;5048999;28;20189;-80
2023/01/20 02:01:38;;;;;;;169.83;20.83;;;;;;;-0.06;100.00;98626.88;5051711;28;20779;-80
2023/01/20 02:04:12;;;;;;;316.10;27.57;;;;;;;-0.22;100.00;98621.28;5049192;28;20263;-80
2023/01/20 02:06:42;;;;;;;366.63;31.20;;;;;;;-0.44;100.00;98628.84;5052851;28;20208;-81
2023/01/20 02:09:13;;;;;;;286.60;26.20;;;;;;;-0.78;100.00;98628.91;5051181;28;20186;-80
2023/01/20 02:11:47;;;;;;;296.17;25.97;;;;;;;-0.89;100.00;98634.41;5051358;28;20193;-79
2023/01/20 02:14:16;;;;;;;151.00;19.87;;;;;;;-0.64;100.00;98632.00;5051672;28;20220;-80
2023/01/20 02:16:59;;;;;;;78.97;14.87;;;;;;;-0.44;100.00;98641.84;5053861;28;20208;-80
2023/01/20 02:20:03;;;;;;;151.57;20.77;;;;;;;-0.59;100.00;98640.50;5050396;28;20189;-80
2023/01/20 02:22:41;;;;;;;69.53;16.37;;;;;;;-0.67;100.00;98641.66;5053210;28;20212;-80
2023/01/20 02:25:49;;;;;;;115.30;17.13;;;;;;;-0.65;100.00;98639.84;5051127;28;20231;-80
2023/01/20 02:29:03;;;;;;;185.80;21.07;;;;;;;-1.36;100.00;98637.34;5053689;28;20296;-80
2023/01/20 02:32:13;;;;;;;246.80;22.60;;;;;;;-1.60;100.00;98647.44;5080896;28;20647;-80
2023/01/20 02:34:50;;;;;;;139.73;18.67;;;;;;;-1.32;100.00;98652.00;5059494;28;20199;-80
2023/01/20 02:37:23;;;;;;;51.50;15.37;;;;;;;-1.27;100.00;98648.38;5092096;28;20188;-79
2023/01/20 02:40:00;;;;;;;182.03;20.87;;;;;;;-1.28;100.00;98657.06;5094447;28;20192;-79
2023/01/20 02:42:38;;;;;;;79.97;16.63;;;;;;;-1.18;100.00;98661.13;5092944;28;20690;-79
2023/01/20 02:45:13;;;;;;;109.33;17.47;;;;;;;-1.08;100.00;98672.16;5094036;28;20225;-79
2023/01/20 02:47:46;;;;;;;89.83;17.40;;;;;;;-0.94;100.00;98666.63;5095985;28;20210;-79
2023/01/20 02:50:25;;;;;;;111.50;17.87;;;;;;;-0.95;100.00;98672.72;5093961;28;20187;-79
2023/01/20 02:52:58;;;;;;;66.93;15.73;;;;;;;-0.87;100.00;98666.44;5094272;28;20221;-79
2023/01/20 02:55:31;;;;;;;63.00;16.97;;;;;;;-0.80;100.00;98672.31;5093884;28;20249;-80
2023/01/20 02:58:06;;;;;;;69.60;16.90;;;;;;;-0.72;100.00;98674.69;5093361;28;20200;-80
2023/01/20 03:00:39;;;;;;;64.97;16.67;;;;;;;-0.85;100.00;98674.19;5088746;28;20292;-80
2023/01/20 03:03:12;;;;;;;69.40;19.07;;;;;;;-0.83;100.00;98664.59;5095584;28;20215;-80
2023/01/20 03:05:50;;;;;;;49.87;16.10;;;;;;;-0.78;100.00;98678.31;5095226;28;20192;-80
2023/01/20 03:08:22;;;;;;;74.53;18.40;;;;;;;-0.80;100.00;98674.91;5048740;28;20193;-80
2023/01/20 03:10:53;;;;;;;46.60;16.27;;;;;;;-0.60;100.00;98679.56;5050366;28;20189;-79
2023/01/20 03:13:28;;;;;;;66.40;17.90;;;;;;;-0.54;100.00;98687.22;5042675;28;20205;-79
2023/01/20 03:16:00;;;;;;;34.97;16.97;;;;;;;-0.39;100.00;98685.94;5042130;28;20682;-80
2023/01/20 03:18:30;;;;;;;36.47;16.60;;;;;;;-0.36;100.00;98693.66;5048804;28;20254;-80
2023/01/20 03:21:01;;;;;;;54.97;17.33;;;;;;;-0.38;100.00;98698.06;5050419;28;20240;-80
2023/01/20 03:23:33;;;;;;;37.53;15.97;;;;;;;-0.36;100.00;98691.06;5051303;28;20217;-80
2023/01/20 03:26:08;;;;;;;54.80;17.30;;;;;;;-0.39;100.00;98699.78;5060586;28;20195;-79
2023/01/20 03:28:36;;;;;;;52.80;16.57;;;;;;;-0.48;100.00;98704.38;5090741;28;20192;-79
2023/01/20 03:31:14;;;;;;;36.10;16.53;;;;;;;-0.33;100.00;98701.38;5075359;28;20192;-80
2023/01/20 03:33:43;;;;;;;40.00;16.77;;;;;;;-0.27;100.00;98701.22;5094441;28;20230;-80
2023/01/20 03:36:15;;;;;;;57.57;17.77;;;;;;;-0.45;100.00;98705.19;5073264;28;20650;-79
2023/01/20 03:38:44;;;;;;;36.97;16.13;;;;;;;-0.30;100.00;98709.09;5093668;28;20192;-79
2023/01/20 03:41:24;;;;;;;42.70;17.63;;;;;;;-0.42;100.00;98707.69;5094453;28;20242;-79
2023/01/20 03:43:59;;;;;;;48.17;19.27;;;;;;;-0.65;100.00;98720.47;5090563;28;20211;-79
2023/01/20 03:46:33;;;;;;;33.10;17.13;;;;;;;-0.41;100.00;98716.34;5093862;28;20191;-79
2023/01/20 03:49:09;;;;;;;44.93;17.30;;;;;;;-0.51;100.00;98722.69;5088210;28;20195;-80
2023/01/20 03:51:50;;;;;;;35.70;16.60;;;;;;;-0.63;100.00;98724.72;5089128;28;20281;-80
2023/01/20 03:54:24;;;;;;;65.10;18.47;;;;;;;-1.14;100.00;98720.84;5094139;28;20662;-79
2023/01/20 03:57:02;;;;;;;111.47;20.43;;;;;;;-1.46;100.00;98725.88;5096684;27;20249;-80
2023/01/20 03:59:34;;;;;;;85.80;19.90;;;;;;;-1.50;100.00;98731.19;5089780;28;20219;-79
2023/01/20 04:02:04;;;;;;;49.87;17.03;;;;;;;-1.21;100.00;98727.91;5088421;28;20200;-79
2023/01/20 04:04:36;;;;;;;39.87;17.00;;;;;;;-0.94;100.00;98735.03;5094326;28;20231;-79
2023/01/20 04:07:06;;;;;;;65.13;17.87;;;;;;;-0.91;100.00;98731.50;5093023;28;20199;-79
2023/01/20 04:09:39;;;;;;;53.17;18.13;;;;;;;-0.79;100.00;98735.53;5091931;28;20191;-78
2023/01/20 04:12:07;;;;;;;69.77;19.50;;;;;;;-0.79;100.00;98735.53;5093522;28;20191;-80
2023/01/20 04:14:36;;;;;;;80.63;19.30;;;;;;;-0.77;100.00;98742.44;5093086;28;20196;-79
2023/01/20 04:17:06;;;;;;;54.37;18.47;;;;;;;-0.67;100.00;98743.06;5092671;28;20188;-79
2023/01/20 04:19:35;;;;;;;55.90;18.90;;;;;;;-0.61;100.00;98743.72;5089744;28;20203;-79
2023/01/20 04:22:10;;;;;;;52.57;18.27;;;;;;;-0.43;100.00;98745.00;5087676;28;20233;-79
2023/01/20 04:24:43;;;;;;;69.87;20.37;;;;;;;-0.41;100.00;98745.81;5092389;28;20234;-79
2023/01/20 04:27:12;;;;;;;37.77;18.30;;;;;;;-0.31;100.00;98751.63;5088074;28;20207;-79
2023/01/20 04:29:41;;;;;;;52.40;18.93;;;;;;;-0.55;100.00;98754.88;5088133;28;20220;-79
2023/01/20 04:32:12;;;;;;;66.80;20.37;;;;;;;-0.67;100.00;98751.72;5086965;28;20212;-79
2023/01/20 04:34:40;;;;;;;35.37;17.03;;;;;;;-0.46;100.00;98758.09;5090816;28;20196;-79
2023/01/20 04:37:12;;;;;;;59.40;19.63;;;;;;;-0.42;100.00;98759.72;5091641;28;20191;-79
2023/01/20 04:39:40;;;;;;;43.87;18.67;;;;;;;-0.35;100.00;98760.41;5085893;28;20707;-79
2023/01/20 04:42:09;;;;;;;44.83;18.90;;;;;;;-0.27;100.00;98760.22;5094833;27;20212;-79
2023/01/20 04:44:39;;;;;;;50.77;20.80;;;;;;;-0.26;100.00;98774.94;5088806;28;20219;-79
2023/01/20 04:47:07;;;;;;;48.73;20.07;;;;;;;-0.24;100.00;98773.13;5092884;28;20195;-79
2023/01/20 04:49:36;;;;;;;53.97;18.87;;;;;;;-0.18;100.00;98771.22;5090748;28;20219;-79
2023/01/20 04:52:04;;;;;;;40.20;18.27;;;;;;;-0.18;100.00;98776.44;5090155;28;20191;-79
2023/01/20 04:54:34;;;;;;;41.33;18.93;;;;;;;-0.19;100.00;98779.06;5092949;28;20191;-79
2023/01/20 04:57:06;;;;;;;50.87;20.30;;;;;;;-0.30;100.00;98782.78;5091966;28;20199;-79
2023/01/20 04:59:35;;;;;;;44.00;17.90;;;;;;;-0.17;100.00;98782.50;5088099;28;20215;-79
2023/01/20 05:02:03;;;;;;;49.03;18.63;;;;;;;-0.41;100.00;98769.22;5088879;28;20200;-78
2023/01/20 05:04:31;;;;;;;49.33;19.10;;;;;;;-0.40;100.00;98781.31;5089950;28;20227;-79
2023/01/20 05:07:00;;;;;;;45.53;17.70;;;;;;;-0.45;100.00;98779.75;5091616;28;20196;-79
2023/01/20 05:09:28;;;;;;;45.20;19.07;;;;;;;-0.44;100.00;98784.91;5092793;28;20215;-79
2023/01/20 05:11:58;;;;;;;41.60;17.93;;;;;;;-0.31;100.00;98780.25;5088208;28;20204;-79
2023/01/20 05:14:27;;;;;;;46.90;17.97;;;;;;;-0.33;100.00;98787.25;5094428;27;20254;-79
2023/01/20 05:16:55;;;;;;;47.33;18.47;;;;;;;-0.22;100.00;98787.81;5085708;28;20203;-79
2023/01/20 05:19:23;;;;;;;43.03;18.13;;;;;;;-0.27;100.00;98792.28;5089231;28;20226;-79
2023/01/20 05:21:51;;;;;;;46.13;19.07;;;;;;;-0.14;100.00;98790.19;5091239;28;20533;-79
2023/01/20 05:24:20;;;;;;;58.23;17.70;;;;;;;-0.15;100.00;98797.16;5052557;28;20207;-78
2023/01/20 05:26:48;;;;;;;53.50;19.77;;;;;;;-0.26;100.00;98801.81;5081358;28;20232;-79
2023/01/20 05:29:18;;;;;;;46.67;19.27;;;;;;;-0.20;100.00;98799.00;5089105;28;20188;-79
2023/01/20 05:31:46;;;;;;;55.83;22.00;;;;;;;-0.15;100.00;98804.13;5094241;28;20242;-79
2023/01/20 05:34:15;;;;;;;66.57;21.43;;;;;;;-0.19;100.00;98795.56;5083774;28;20198;-79
2023/01/20 05:36:45;;;;;;;47.50;19.23;;;;;;;-0.01;100.00;98807.19;5065660;28;20245;-78
2023/01/20 05:39:13;;;;;;;52.90;20.03;;;;;;;-0.10;100.00;98813.50;5089087;28;20200;-78
2023/01/20 05:41:45;;;;;;;56.23;19.47;;;;;;;0.01;100.00;98808.03;5089787;28;20203;-79
2023/01/20 05:44:13;;;;;;;44.47;18.37;;;;;;;-0.17;100.00;98814.56;5084874;28;20692;-78
2023/01/20 05:46:43;;;;;;;64.43;21.53;;;;;;;-0.13;100.00;98813.59;5083109;28;20204;-78
2023/01/20 05:49:12;;;;;;;83.27;20.83;;;;;;;-0.36;100.00;98815.94;5092582;28;20192;-78
2023/01/20 05:51:40;;;;;;;46.50;18.67;;;;;;;-0.20;100.00;98826.78;5091341;28;20184;-78
2023/01/20 05:54:08;;;;;;;80.07;21.50;;;;;;;-0.21;100.00;98831.13;5091441;28;20671;-78
2023/01/20 05:56:37;;;;;;;49.63;18.77;;;;;;;-0.12;100.00;98833.50;5087150;28;20199;-79
2023/01/20 05:59:06;;;;;;;86.77;27.97;;;;;;;-0.41;100.00;98839.44;5087184;28;20234;-78
2023/01/20 06:01:35;;;;;;;98.43;34.00;;;;;;;-0.52;100.00;98833.66;5054605;28;20189;-78
2023/01/20 06:04:05;;;;;;;58.87;20.63;;;;;;;-0.42;100.00;98842.09;5051896;28;20213;-79
2023/01/20 06:06:34;;;;;;;60.13;19.83;;;;;;;-0.47;100.00;98844.84;5046666;28;20197;-79
2023/01/20 06:09:09;;;;;;;52.57;19.27;;;;;;;-0.33;100.00;98850.53;5050719;28;20204;-79
2023/01/20 06:11:39;;;;;;;68.20;29.13;;;;;;;-0.24;100.00;98852.03;5051969;28;20674;-79
2023/01/20 06:14:08;;;;;;;56.23;20.53;;;;;;;-0.11;100.00;98858.63;5007848;28;20256;-79
2023/01/20 06:16:36;;;;;;;50.50;19.27;;;;;;;-0.04;100.00;98857.59;5010321;28;20532;-79
2023/01/20 06:19:06;;;;;;;44.77;17.90;;;;;;;0.04;100.00;98852.19;5000446;28;20198;-79
2023/01/20 06:21:34;;;;;;;229.17;95.10;;;;;;;-0.04;100.00;98859.34;5002088;28;20233;-79
2023/01/20 06:24:03;;;;;;;391.60;144.53;;;;;;;-0.27;100.00;98859.09;5010054;28;20206;-79
2023/01/20 06:26:33;;;;;;;125.53;47.77;;;;;;;-0.19;100.00;98863.22;5002921;28;20218;-78
2023/01/20 06:29:01;;;;;;;79.10;33.10;;;;;;;-0.11;100.00;98863.84;5009034;28;20209;-79
2023/01/20 06:31:31;;;;;;;45.83;19.40;;;;;;;0.07;100.00;98869.47;5019858;28;20185;-78
2023/01/20 06:33:59;;;;;;;46.17;20.03;;;;;;;-0.04;100.00;98867.16;5052164;28;20197;-79
2023/01/20 06:36:30;;;;;;;45.00;18.77;;;;;;;0.07;100.00;98865.13;5054451;28;20228;-79
2023/01/20 06:38:59;;;;;;;47.50;19.60;;;;;;;-0.13;100.00;98867.38;5054257;28;20197;-78
2023/01/20 06:41:27;;;;;;;45.27;18.67;;;;;;;-0.06;100.00;98868.94;5044406;28;20723;-78
2023/01/20 06:43:56;;;;;;;43.87;18.80;;;;;;;0.04;100.00;98867.81;5050271;28;20209;-79
2023/01/20 06:46:24;;;;;;;39.53;18.13;;;;;;;0.12;100.00;98876.28;5059548;28;20259;-79
2023/01/20 06:48:59;;;;;;;39.20;17.20;;;;;;;-0.13;100.00;98875.19;5056149;28;20714;-80
2023/01/20 06:51:32;;;;;;;39.97;17.50;;;;;;;-0.16;100.00;98877.88;5050856;28;20279;-80
2023/01/20 06:54:00;;;;;;;38.80;17.97;;;;;;;-0.04;100.00;98887.97;5060563;28;20215;-79
2023/01/20 06:56:29;;;;;;;42.27;19.10;;;;;;;0.05;100.00;98886.88;5052991;28;20197;-79
2023/01/20 06:58:57;;;;;;;37.50;16.97;;;;;;;0.14;100.00;98891.84;5052786;28;20251;-79
2023/01/20 07:01:28;;;;;;;40.17;17.47;;;;;;;0.21;100.00;98891.66;5090262;28;20224;-79
2023/01/20 07:03:57;;;;;;;42.93;17.87;;;;;;;0.09;100.00;98896.31;5094019;28;20204;-79
2023/01/20 07:06:30;;;;;;;42.13;18.13;;;;;;;0.03;100.00;98899.94;5092842;28;20224;-79
2023/01/20 07:09:01;;;;;;;37.53;17.20;;;;;;;0.01;100.00;98900.88;5095433;28;20204;-79
2023/01/20 07:11:31;;;;;;;37.17;16.20;;;;;;;0.18;100.00;98904.72;5087890;28;20188;-79
2023/01/20 07:13:59;;;;;;;39.40;18.00;;;;;;;0.28;100.00;98901.00;5092269;28;20229;-78
2023/01/20 07:16:28;;;;;;;43.63;18.43;;;;;;;0.09;100.00;98912.78;5097717;27;20192;-79
2023/01/20 07:18:56;;;;;;;38.93;16.93;;;;;;;0.09;100.00;98914.53;5089832;28;20192;-78
2023/01/20 07:21:25;;;;;;;52.73;26.50;;;;;;;-0.01;100.00;98912.16;5096908;27;20188;-78
2023/01/20 07:23:58;;;;;;;34.43;17.23;;;;;;;0.09;100.00;98914.53;5094013;28;20194;-78
2023/01/20 07:26:26;;;;;;;32.70;15.20;;;;;;;0.11;100.00;98916.22;5093125;28;20246;-79
2023/01/20 07:28:55;;;;;;;34.97;15.77;;;;;;;0.11;100.00;98916.22;5091318;28;20191;-79
2023/01/20 07:31:25;;;;;;;33.63;16.07;;;;;;;0.15;100.00;98915.25;5094433;28;20199;-78
2023/01/20 07:33:55;;;;;;;38.67;17.50;;;;;;;0.39;100.00;98929.38;5094892;28;20188;-78
2023/01/20 07:36:24;;;;;;;37.63;17.73;;;;;;;-0.12;100.00;98926.34;5092692;28;20226;-79
2023/01/20 07:38:53;;;;;;;37.33;17.07;;;;;;;-0.09;100.00;98924.53;5086563;28;20241;-78
2023/01/20 07:41:23;;;;;;;33.27;16.77;;;;;;;0.08;100.00;98923.25;5072175;28;20192;-79
2023/01/20 07:43:53;;;;;;;35.83;16.67;;;;;;;0.31;100.00;98933.94;5072462;28;20189;-79
2023/01/20 07:46:22;;;;;;;32.97;16.10;;;;;;;0.26;100.00;98938.41;5069416;28;20289;-79
2023/01/20 07:48:51;;;;;;;41.23;20.63;;;;;;;0.23;100.00;98941.09;5072158;28;20195;-78
2023/01/20 07:51:21;;;;;;;36.67;17.87;;;;;;;0.28;100.00;98934.84;5067896;28;20235;-78
2023/01/20 07:53:51;;;;;;;37.07;17.73;;;;;;;0.31;100.00;98939.16;5068165;28;20203;-79
2023/01/20 07:56:21;;;;;;;37.93;17.00;;;;;;;0.23;100.00;98939.34;5066795;28;20192;-79
2023/01/20 07:58:51;;;;;;;34.93;16.77;;;;;;;0.21;100.00;98940.28;5073483;28;20209;-79
2023/01/20 08:01:21;;;;;;;36.67;16.67;;;;;;;0.42;100.00;98950.13;5090146;28;20281;-80
2023/01/20 08:03:51;;;;;;;39.13;18.90;;;;;;;0.35;100.00;98950.31;5095413;27;20203;-79
2023/01/20 08:06:21;;;;;;;39.63;17.40;;;;;;;0.35;100.00;98950.31;5091648;28;20356;-79
2023/01/20 08:08:49;;;;;;;35.10;16.20;;;;;;;0.40;100.00;98951.06;5090339;28;20245;-79
2023/01/20 08:11:20;;;;;;;38.37;18.10;;;;;;;0.42;100.00;98947.53;5088013;28;20244;-78
2023/01/20 08:13:50;;;;;;;46.10;21.73;;;;;;;0.15;100.00;98959.50;5093707;28;20207;-79
2023/01/20 08:16:19;;;;;;;36.63;16.57;;;;;;;0.41;100.00;98956.25;5091827;28;20193;-79
2023/01/20 08:18:49;;;;;;;33.67;16.83;;;;;;;0.14;100.00;98951.75;5094241;28;20203;-79
2023/01/20 08:21:20;;;;;;;28.37;15.63;;;;;;;0.39;100.00;98955.44;5090429;28;20245;-79
2023/01/20 08:23:49;;;;;;;39.70;19.97;;;;;;;0.41;100.00;98958.00;5092258;28;20196;-79
2023/01/20 08:26:18;;;;;;;38.87;19.57;;;;;;;0.35;100.00;98959.00;5088329;28;20223;-79
2023/01/20 08:28:48;;;;;;;37.87;19.77;;;;;;;0.07;100.00;98969.25;5090559;28;20191;-79
2023/01/20 08:31:20;;;;;;;37.07;18.37;;;;;;;-0.06;100.00;98962.66;5093502;28;20192;-79
2023/01/20 08:33:53;;;;;;;37.43;18.60;;;;;;;0.35;100.00;98973.75;5093275;28;20523;-78
2023/01/20 08:36:24;;;;;;;37.33;18.10;;;;;;;0.16;100.00;98975.97;5092526;28;20203;-78
2023/01/20 08:38:52;;;;;;;34.67;17.03;;;;;;;0.23;100.00;98973.19;5094464;27;20564;-78
2023/01/20 08:41:27;;;;;;;33.73;18.30;;;;;;;0.00;100.00;98988.53;5087748;28;20204;-79
2023/01/20 08:43:58;;;;;;;32.37;17.17;;;;;;;-0.08;100.00;98991.31;5093547;28;20218;-79
2023/01/20 08:46:33;;;;;;;33.87;17.30;;;;;;;0.18;100.00;98995.88;5093300;28;20234;-78
2023/01/20 08:49:02;;;;;;;35.47;18.70;;;;;;;-0.22;100.00;99002.94;5095570;27;20267;-79
2023/01/20 08:51:32;;;;;;;32.90;16.07;;;;;;;0.00;100.00;98993.75;5087206;28;20203;-79
2023/01/20 08:54:01;;;;;;;36.40;18.13;;;;;;;-0.16;100.00;99000.19;5093125;28;20188;-79
2023/01/20 08:56:30;;;;;;;36.57;18.37;;;;;;;0.26;100.00;99003.50;5090741;28;20195;-79
2023/01/20 08:58:59;;;;;;;35.47;17.67;;;;;;;0.52;100.00;99005.44;5091462;28;20657;-78
2023/01/20 09:01:36;;;;;;;38.67;19.87;;;;;;;0.31;100.00;99011.22;5092910;28;20242;-79
2023/01/20 09:04:10;;;;;;;34.37;17.87;;;;;;;0.46;100.00;99009.06;5092790;28;20695;-79
2023/01/20 09:06:42;;;;;;;38.70;21.90;;;;;;;0.24;100.00;99011.34;5089451;28;20216;-79
2023/01/20 09:09:12;;;;;;;32.67;16.93;;;;;;;0.50;100.00;99015.06;5088009;28;20279;-79
2023/01/20 09:11:43;;;;;;;35.70;17.10;;;;;;;0.63;100.00;99018.19;5090279;28;20206;-79
2023/01/20 09:14:12;;;;;;;39.00;17.90;;;;;;;0.70;100.00;99009.34;5090930;28;20191;-79
2023/01/20 09:16:41;;;;;;;34.77;19.37;;;;;;;0.64;100.00;99014.69;5090039;28;20245;-79
2023/01/20 09:19:11;;;;;;;38.13;18.63;;;;;;;0.89;100.00;99017.50;5088159;28;20203;-79
2023/01/20 09:21:39;;;;;;;37.00;18.63;;;;;;;0.66;100.00;99018.97;5084497;28;20199;-79
2023/01/20 09:24:07;;;;;;;38.13;18.40;;;;;;;0.56;100.00;99012.28;5089676;28;20246;-80
2023/01/20 09:26:38;;;;;;;34.70;18.73;;;;;;;0.65;100.00;99012.03;5086998;28;20219;-79
2023/01/20 09:29:10;;;;;;;36.63;18.33;;;;;;;0.69;100.00;99008.47;5089156;28;20191;-79
2023/01/20 09:31:42;;;;;;;35.33;18.90;;;;;;;0.69;100.00;99010.22;5089365;28;20192;-80
2023/01/20 09:34:18;;;;;;;36.93;18.60;;;;;;;0.39;100.00;99015.34;5092608;28;20188;-79
2023/01/20 09:36:50;;;;;;;37.67;17.53;;;;;;;0.60;100.00;99019.16;5086142;28;20576;-79
2023/01/20 09:45:21;;;;;;;45.00;20.00;;;;;;;0.63;100.00;99024.25;5092952;28;20598;-79
2023/01/20 09:47:50;;;;;;;43.90;18.93;;;;;;;0.46;100.00;99022.09;5090757;28;20211;-79
2023/01/20 09:53:35;;;;;;;42.63;19.50;;;;;;;0.46;100.00;99032.50;5091494;28;20190;-79
2023/01/20 09:56:09;;;;;;;42.17;18.10;;;;;;;0.74;100.00;99034.41;5088668;28;20240;-79
2023/01/20 09:58:44;;;;;;;37.73;17.87;;;;;;;0.96;100.00;99037.28;5092018;28;20244;-79
2023/01/20 10:01:18;;;;;;;41.67;18.13;;;;;;;0.96;100.00;99040.75;5090511;28;20223;-80
2023/01/20 10:03:53;;;;;;;44.43;19.20;;;;;;;0.90;100.00;99043.53;5087557;28;20234;-79
2023/01/20 10:06:30;;;;;;;39.93;18.33;;;;;;;0.97;100.00;99044.25;5095070;28;20188;-80
2023/01/20 10:09:02;;;;;;;41.63;17.67;;;;;;;0.87;100.00;99038.41;5096276;28;20196;-79
2023/01/20 10:11:37;;;;;;;40.43;19.43;;;;;;;0.95;100.00;99048.63;5098690;27;20219;-79
2023/01/20 10:14:13;;;;;;;46.93;19.77;;;;;;;0.96;100.00;99045.97;5096054;28;20222;-79
2023/01/20 10:16:50;;;;;;;42.33;18.50;;;;;;;1.13;100.00;99053.34;5091078;28;20269;-80
2023/01/20 10:19:25;;;;;;;46.13;19.77;;;;;;;0.69;100.00;99058.00;5093268;28;20210;-80
2023/01/20 10:22:07;;;;;;;38.23;18.87;;;;;;;0.93;100.00;99050.41;5084793;28;20203;-79
2023/01/20 10:24:41;;;;;;;43.00;18.87;;;;;;;0.95;100.00;99053.81;5094855;28;20198;-79
2023/01/20 10:27:11;;;;;;;34.10;16.80;;;;;;;0.90;100.00;99051.34;5093069;28;20268;-80
2023/01/20 10:29:45;;;;;;;38.00;16.40;;;;;;;0.96;100.00;99055.53;5086091;28;20319;-80
2023/01/20 10:32:22;;;;;;;35.13;16.43;;;;;;;0.99;100.00;99053.72;5096313;28;20192;-80
2023/01/20 10:34:54;;;;;;;38.43;17.50;;;;;;;0.99;100.00;99052.88;5094592;28;20195;-79
2023/01/20 10:37:31;;;;;;;39.03;17.17;;;;;;;0.91;100.00;99062.66;5077798;28;20199;-79
2023/01/20 10:40:13;;;;;;;42.93;18.03;;;;;;;0.64;100.00;99057.25;5095277;28;20252;-79
2023/01/20 10:42:44;;;;;;;65.40;29.63;;;;;;;0.66;100.00;99058.06;5094882;28;20195;-80
2023/01/20 10:45:19;;;;;;;69.60;27.07;;;;;;;0.82;100.00;99059.38;5091464;28;20192;-80
2023/01/20 10:47:59;;;;;;;51.43;24.10;;;;;;;0.79;100.00;99056.88;5092225;28;20219;-79
2023/01/20 10:50:41;;;;;;;45.73;19.87;;;;;;;0.81;100.00;99055.06;5089589;28;20389;-79
2023/01/20 10:53:39;;;;;;;51.23;19.73;;;;;;;0.69;100.00;99065.81;5092601;28;20196;-79
2023/01/20 10:56:24;;;;;;;40.73;18.97;;;;;;;0.97;100.00;99063.34;5093078;28;20203;-79
2023/01/20 10:58:53;;;;;;;43.13;19.17;;;;;;;0.86;100.00;99063.59;5094678;28;20192;-79
2023/01/20 11:01:21;;;;;;;39.87;17.87;;;;;;;0.87;100.00;99064.50;5089005;28;20280;-80
2023/01/20 11:03:52;;;;;;;34.03;15.60;;;;;;;1.02;100.00;99063.22;5094776;28;20237;-80
2023/01/20 11:06:24;;;;;;;41.37;18.57;;;;;;;0.75;100.00;99068.25;5089593;28;20269;-79
2023/01/20 11:08:53;;;;;;;39.80;19.40;;;;;;;0.83;100.00;99060.22;5094339;28;20218;-79
2023/01/20 11:11:28;;;;;;;46.27;19.50;;;;;;;0.82;100.00;99068.94;5091202;28;20192;-80
2023/01/20 11:13:58;;;;;;;49.70;20.27;;;;;;;0.77;100.00;99068.19;5090506;28;20207;-80
2023/01/20 11:16:28;;;;;;;46.60;20.30;;;;;;;0.79;100.00;99072.50;5087333;28;20223;-80
2023/01/20 11:18:59;;;;;;;50.27;21.77;;;;;;;0.90;100.00;99058.31;5092224;28;20304;-79
2023/01/20 11:21:30;;;;;;;49.50;22.53;;;;;;;1.04;100.00;99071.84;5091883;28;20219;-80
2023/01/20 11:24:01;;;;;;;49.73;21.37;;;;;;;0.92;100.00;99072.16;5090368;28;20253;-80
2023/01/20 11:26:35;;;;;;;47.13;22.50;;;;;;;0.86;100.00;99070.56;5091978;28;20198;-80
2023/01/20 11:29:22;;;;;;;48.10;22.47;;;;;;;1.12;100.00;99078.56;5096986;27;20223;-80
2023/01/20 11:31:54;;;;;;;43.00;22.37;;;;;;;0.78;100.00;99073.41;5097420;27;20204;-80
2023/01/20 11:34:25;;;;;;;46.77;22.10;;;;;;;1.01;100.00;99077.16;5094893;28;20196;-79
2023/01/20 11:37:16;;;;;;;39.77;22.00;;;;;;;1.21;100.00;99080.06;5090734;28;20244;-80
2023/01/20 11:40:00;;;;;;;41.47;20.77;;;;;;;1.06;100.00;99072.66;5091118;28;20204;-80
2023/01/20 11:42:41;;;;;;;45.97;21.77;;;;;;;1.23;100.00;99074.81;5052495;28;20201;-80